createdAt,value
2024-01-14T00:00:58.316Z,100522.59
2024-01-14T00:03:25.203Z,100515.50
2024-01-14T00:05:51.726Z,100524.97
2024-01-14T00:08:18.407Z,100503.28
2024-01-14T00:10:44.807Z,100514.25
2024-01-14T00:13:11.593Z,100504.31
2024-01-14T00:15:38.335Z,100499.53
2024-01-14T00:18:05.181Z,100497.47
2024-01-14T00:20:31.655Z,100497.91
2024-01-14T00:22:58.126Z,100495.78
2024-01-14T00:25:24.745Z,100491.00
2024-01-14T00:27:51.210Z,100481.81
2024-01-14T00:30:17.842Z,100487.84
2024-01-14T00:32:44.377Z,100488.56
2024-01-14T00:35:11.074Z,100483.06
2024-01-14T00:37:37.576Z,100487.03
2024-01-14T00:40:07.992Z,100484.13
2024-01-14T00:42:34.560Z,100481.69
2024-01-14T00:45:01.944Z,100495.09
2024-01-14T00:47:31.393Z,100476.22
2024-01-14T00:49:58.792Z,100474.34
2024-01-14T00:52:25.228Z,100472.00
2024-01-14T00:54:51.624Z,100484.03
2024-01-14T00:57:19.044Z,100470.84
2024-01-14T00:59:45.760Z,100465.16
2024-01-14T01:02:13.275Z,100464.19
2024-01-14T01:04:40.096Z,100455.59
2024-01-14T01:07:07.612Z,100451.47
2024-01-14T01:09:35.007Z,100461.41
2024-01-14T01:12:01.895Z,100450.66
2024-01-14T01:14:28.306Z,100463.19
2024-01-14T01:16:54.822Z,100459.53
2024-01-14T01:19:21.379Z,100456.06
2024-01-14T01:21:48.682Z,100458.41
2024-01-14T01:24:16.145Z,100461.66
2024-01-14T01:26:42.599Z,100453.84
2024-01-14T01:29:09.093Z,100455.59
2024-01-14T01:31:45.439Z,100454.53
2024-01-14T01:34:15.109Z,100452.09
2024-01-14T01:36:41.712Z,100452.66
2024-01-14T01:39:08.188Z,100438.44
2024-01-14T01:41:34.619Z,100435.38
2024-01-14T01:44:01.059Z,100429.19
2024-01-14T01:46:27.472Z,100420.09
2024-01-14T01:48:54.262Z,100423.59
2024-01-14T01:51:21.143Z,100428.50
2024-01-14T01:53:47.684Z,100422.09
2024-01-14T01:56:14.685Z,100413.78
2024-01-14T01:58:41.770Z,100409.50
2024-01-14T02:01:08.539Z,100423.94
2024-01-14T02:03:35.918Z,100427.09
2024-01-14T02:06:04.050Z,100409.94
2024-01-14T02:08:30.612Z,100417.41
2024-01-14T02:10:57.113Z,100412.41
2024-01-14T02:13:23.529Z,100409.72
2024-01-14T02:15:49.996Z,100399.78
2024-01-14T02:18:17.007Z,100397.09
2024-01-14T02:20:43.545Z,100409.25
2024-01-14T02:23:13.441Z,100410.88
2024-01-14T02:25:39.841Z,100398.41
2024-01-14T02:28:06.551Z,100407.50
2024-01-14T02:30:34.760Z,100400.84
2024-01-14T02:33:02.636Z,100399.22
2024-01-14T02:35:29.338Z,100392.19
2024-01-14T02:37:56.692Z,100393.72
2024-01-14T02:40:23.153Z,100393.72
2024-01-14T02:42:49.558Z,100397.34
2024-01-14T02:45:16.147Z,100389.63
2024-01-14T02:47:42.765Z,100397.31
2024-01-14T02:50:09.645Z,100410.19
2024-01-14T02:52:36.053Z,100411.47
2024-01-14T02:55:02.825Z,100405.84
2024-01-14T02:57:29.489Z,100390.56
2024-01-14T02:59:55.974Z,100401.19
2024-01-14T03:02:22.373Z,100397.19
2024-01-14T03:04:49.068Z,100397.31
2024-01-14T03:07:15.525Z,100396.38
2024-01-14T03:09:42.208Z,100402.34
2024-01-14T03:12:09.271Z,100395.69
2024-01-14T03:14:35.832Z,100398.97
2024-01-14T03:17:02.561Z,100385.53
2024-01-14T03:19:29.067Z,100384.34
2024-01-14T03:21:55.590Z,100380.63
2024-01-14T03:24:22.076Z,100389.50
2024-01-14T03:26:48.758Z,100387.66
2024-01-14T03:29:15.343Z,100385.53
2024-01-14T03:31:41.827Z,100374.00
2024-01-14T03:34:08.526Z,100387.03
2024-01-14T03:36:35.187Z,100384.34
2024-01-14T03:39:04.873Z,100382.06
2024-01-14T03:41:34.229Z,100379.59
2024-01-14T03:44:01.196Z,100384.34
2024-01-14T03:46:27.740Z,100377.94
2024-01-14T03:48:54.316Z,100386.69
2024-01-14T03:51:20.873Z,100387.75
2024-01-14T03:53:48.256Z,100371.28
2024-01-14T03:56:14.924Z,100370.69
2024-01-14T03:58:41.685Z,100376.53
2024-01-14T04:01:15.980Z,100375.16
2024-01-14T04:03:42.658Z,100382.38
2024-01-14T04:06:09.768Z,100376.06
2024-01-14T04:08:36.429Z,100371.88
2024-01-14T04:11:03.445Z,100380.47
2024-01-14T04:13:29.864Z,100380.94
2024-01-14T04:15:59.843Z,100380.72
2024-01-14T04:18:27.872Z,100372.09
2024-01-14T04:20:54.326Z,100362.97
2024-01-14T04:23:20.742Z,100359.13
2024-01-14T04:25:47.148Z,100371.13
2024-01-14T04:28:13.585Z,100362.03
2024-01-14T04:30:40.020Z,100359.69
2024-01-14T04:33:06.709Z,100360.59
2024-01-14T04:35:33.278Z,100353.41
2024-01-14T04:38:01.470Z,100356.91
2024-01-14T04:40:28.357Z,100366.09
2024-01-14T04:42:54.748Z,100362.00
2024-01-14T04:45:21.162Z,100356.41
2024-01-14T04:47:48.207Z,100362.91
2024-01-14T04:50:14.944Z,100357.53
2024-01-14T04:52:41.731Z,100350.56
2024-01-14T04:55:08.316Z,100356.88
2024-01-14T04:57:34.762Z,100352.53
2024-01-14T05:00:01.224Z,100353.50
2024-01-14T05:02:28.157Z,100334.59
2024-01-14T05:04:54.578Z,100345.19
2024-01-14T05:07:21.008Z,100343.91
2024-01-14T05:09:47.433Z,100346.91
2024-01-14T05:12:13.888Z,100338.06
2024-01-14T05:14:40.460Z,100330.13
2024-01-14T05:17:06.943Z,100341.66
2024-01-14T05:19:33.669Z,100335.16
2024-01-14T05:22:00.189Z,100335.06
2024-01-14T05:24:27.157Z,100342.00
2024-01-14T05:26:53.660Z,100331.50
2024-01-14T05:29:20.081Z,100334.09
2024-01-14T05:31:46.556Z,100326.97
2024-01-14T05:34:13.080Z,100332.47
2024-01-14T05:36:39.718Z,100324.19
2024-01-14T05:39:06.203Z,100336.66
2024-01-14T05:41:33.004Z,100326.13
2024-01-14T05:43:59.474Z,100323.13
2024-01-14T05:46:26.278Z,100322.22
2024-01-14T05:48:52.846Z,100323.75
2024-01-14T05:51:19.435Z,100315.09
2024-01-14T05:53:46.911Z,100331.16
2024-01-14T05:56:13.697Z,100321.28
2024-01-14T05:58:42.843Z,100324.69
2024-01-14T06:01:09.540Z,100328.84
2024-01-14T06:03:36.200Z,100324.41
2024-01-14T06:06:03.539Z,100324.19
2024-01-14T06:08:30.503Z,100312.41
2024-01-14T06:10:56.931Z,100317.88
2024-01-14T06:13:23.607Z,100313.81
2024-01-14T06:15:50.019Z,100315.09
2024-01-14T06:18:16.737Z,100324.06
2024-01-14T06:20:44.915Z,100315.19
2024-01-14T06:23:12.223Z,100320.06
2024-01-14T06:25:38.991Z,100317.97
2024-01-14T06:28:07.882Z,100311.69
2024-01-14T06:30:35.387Z,100317.38
2024-01-14T06:33:04.640Z,100312.94
2024-01-14T06:35:31.181Z,100313.66
2024-01-14T06:37:57.581Z,100312.38
2024-01-14T06:40:31.694Z,100317.00
2024-01-14T06:43:02.960Z,100310.47
2024-01-14T06:45:29.581Z,100307.66
2024-01-14T06:47:56.363Z,100302.06
2024-01-14T06:50:22.909Z,100308.81
2024-01-14T06:52:49.354Z,100300.66
2024-01-14T06:55:16.265Z,100310.56
2024-01-14T06:57:42.812Z,100309.53
2024-01-14T07:00:10.437Z,100305.53
2024-01-14T07:02:37.350Z,100299.63
2024-01-14T07:05:09.518Z,100297.34
2024-01-14T07:07:36.057Z,100296.03
2024-01-14T07:10:02.555Z,100292.44
2024-01-14T07:12:29.011Z,100291.13
2024-01-14T07:14:55.570Z,100284.59
2024-01-14T07:17:22.207Z,100281.81
2024-01-14T07:19:48.825Z,100282.25
2024-01-14T07:22:15.568Z,100280.84
2024-01-14T07:24:42.220Z,100275.16
2024-01-14T07:27:08.830Z,100281.59
2024-01-14T07:29:35.415Z,100284.34
2024-01-14T07:32:05.844Z,100287.03
2024-01-14T07:34:33.111Z,100292.41
2024-01-14T07:36:59.631Z,100292.72
2024-01-14T07:39:26.119Z,100299.16
2024-01-14T07:41:52.714Z,100297.66
2024-01-14T07:44:21.826Z,100305.94
2024-01-14T07:46:48.226Z,100314.56
2024-01-14T07:49:15.016Z,100302.09
2024-01-14T07:51:41.715Z,100299.50
2024-01-14T07:54:08.348Z,100296.25
2024-01-14T07:56:34.938Z,100298.69
2024-01-14T07:59:02.623Z,100290.31
2024-01-14T08:01:31.170Z,100289.28
2024-01-14T08:03:58.074Z,100291.34
2024-01-14T08:06:25.514Z,100297.53
2024-01-14T08:08:52.090Z,100290.22
2024-01-14T08:11:18.640Z,100291.78
2024-01-14T08:13:45.184Z,100291.34
2024-01-14T08:16:12.433Z,100293.66
2024-01-14T08:18:39.034Z,100295.44
2024-01-14T08:21:10.286Z,100296.50
2024-01-14T08:23:37.706Z,100300.97
2024-01-14T08:26:04.510Z,100302.13
2024-01-14T08:28:33.135Z,100287.00
2024-01-14T08:30:59.812Z,100290.63
2024-01-14T08:33:26.618Z,100295.06
2024-01-14T08:35:55.330Z,100295.53
2024-01-14T08:38:22.119Z,100291.69
2024-01-14T08:40:48.636Z,100289.34
2024-01-14T08:43:15.329Z,100287.59
2024-01-14T08:45:42.318Z,100295.53
2024-01-14T08:48:09.294Z,100285.50
2024-01-14T08:50:36.122Z,100282.34
2024-01-14T08:53:02.569Z,100284.81
2024-01-14T08:55:29.978Z,100285.38
2024-01-14T08:57:56.474Z,100293.44
2024-01-14T09:00:23.093Z,100289.00
2024-01-14T09:02:49.586Z,100288.19
2024-01-14T09:05:16.649Z,100289.25
2024-01-14T09:07:43.325Z,100285.28
2024-01-14T09:10:10.227Z,100276.66
2024-01-14T09:12:36.902Z,100282.13
2024-01-14T09:15:03.690Z,100282.13
2024-01-14T09:17:30.463Z,100284.25
2024-01-14T09:19:56.965Z,100293.94
2024-01-14T09:22:23.534Z,100282.03
2024-01-14T09:24:50.099Z,100287.94
2024-01-14T09:27:18.461Z,100283.03
2024-01-14T09:29:45.055Z,100285.03
2024-01-14T09:32:11.740Z,100285.72
2024-01-14T09:34:38.311Z,100286.41
2024-01-14T09:37:04.950Z,100279.19
2024-01-14T09:39:31.502Z,100277.41
2024-01-14T09:42:23.538Z,100278.09
2024-01-14T09:44:57.909Z,100279.88
2024-01-14T09:47:26.633Z,100270.34
2024-01-14T09:49:54.987Z,100276.16
2024-01-14T09:52:22.779Z,100273.00
2024-01-14T09:54:49.249Z,100281.53
2024-01-14T09:57:19.385Z,100274.28
2024-01-14T09:59:48.978Z,100268.59
2024-01-14T10:02:16.192Z,100268.81
2024-01-14T10:04:43.899Z,100266.94
2024-01-14T10:07:12.339Z,100268.22
2024-01-14T10:09:43.973Z,100262.41
2024-01-14T10:12:11.155Z,100267.31
2024-01-14T10:14:38.774Z,100266.47
2024-01-14T10:17:05.668Z,100258.41
2024-01-14T10:19:32.556Z,100255.16
2024-01-14T10:22:14.444Z,100254.47
2024-01-14T10:24:52.595Z,100251.19
2024-01-14T10:27:34.080Z,100239.88
2024-01-14T10:30:12.616Z,100239.16
2024-01-14T10:33:15.964Z,100235.34
2024-01-14T10:35:29.254Z,100231.94
2024-01-14T10:37:56.448Z,100235.19
2024-01-14T10:40:23.175Z,100224.53
2024-01-14T10:42:49.613Z,100225.03
2024-01-14T10:45:16.392Z,100211.53
2024-01-14T10:47:48.086Z,100212.22
2024-01-14T10:50:18.454Z,100219.41
2024-01-14T10:52:55.183Z,100215.81
2024-01-14T10:55:38.734Z,100199.47
2024-01-14T10:58:06.390Z,100207.84
2024-01-14T11:00:36.804Z,100199.25
2024-01-14T11:03:07.170Z,100194.34
2024-01-14T11:05:34.917Z,100204.72
2024-01-14T11:08:02.200Z,100194.81
2024-01-14T11:10:29.888Z,100181.88
2024-01-14T11:13:23.377Z,100177.69
2024-01-14T11:16:11.014Z,100188.78
2024-01-14T11:18:46.988Z,100174.34
2024-01-14T11:21:44.711Z,100172.59
2024-01-14T11:24:22.558Z,100155.69
2024-01-14T11:26:49.319Z,100147.19
2024-01-14T11:29:15.769Z,100135.28
2024-01-14T11:32:04.213Z,100137.41
2024-01-14T11:34:46.037Z,100141.00
2024-01-14T11:37:31.752Z,100126.78
2024-01-14T11:40:07.827Z,100122.22
2024-01-14T11:42:35.979Z,100120.84
2024-01-14T11:45:14.516Z,100109.66
2024-01-14T11:47:47.172Z,100108.47
2024-01-14T11:50:15.581Z,100108.34
2024-01-14T11:52:44.927Z,100112.34
2024-01-14T11:55:15.759Z,100104.88
2024-01-14T11:57:42.762Z,100109.91
2024-01-14T12:00:09.893Z,100099.16
2024-01-14T12:02:36.647Z,100105.22
2024-01-14T12:05:16.582Z,100093.69
2024-01-14T12:07:44.083Z,100080.19
2024-01-14T12:10:14.562Z,100088.91
2024-01-14T12:12:42.905Z,100076.88
2024-01-14T12:15:10.700Z,100071.19
2024-01-14T12:17:37.360Z,100072.72
2024-01-14T12:20:06.165Z,100061.28
2024-01-14T12:22:32.682Z,100058.84
2024-01-14T12:25:02.014Z,100047.16
2024-01-14T12:27:28.562Z,100051.28
2024-01-14T12:29:56.553Z,100026.44
2024-01-14T12:32:23.266Z,100028.06
2024-01-14T12:34:50.456Z,100027.00
2024-01-14T12:37:17.518Z,100024.56
2024-01-14T12:39:44.459Z,100022.94
2024-01-14T12:42:13.014Z,100021.19
2024-01-14T12:44:48.155Z,100016.31
2024-01-14T12:47:14.794Z,100006.41
2024-01-14T12:49:44.958Z,100009.44
2024-01-14T12:52:11.999Z,100005.47
2024-01-14T12:54:39.109Z,99996.25
2024-01-14T12:57:16.727Z,99991.84
2024-01-14T12:59:49.303Z,99984.41
2024-01-14T13:02:15.820Z,99990.56
2024-01-14T13:04:42.463Z,99988.00
2024-01-14T13:07:12.878Z,99993.69
2024-01-14T13:09:41.145Z,99974.59
2024-01-14T13:12:08.153Z,99988.81
2024-01-14T13:14:34.943Z,99977.97
2024-01-14T13:17:03.531Z,99964.69
2024-01-14T13:19:30.312Z,99966.91
2024-01-14T13:21:56.988Z,99959.34
2024-01-14T13:24:23.436Z,99943.72
2024-01-14T13:26:49.946Z,99947.69
2024-01-14T13:29:16.559Z,99946.91
2024-01-14T13:31:43.783Z,99939.91
2024-01-14T13:34:10.866Z,99924.50
2024-01-14T13:36:37.759Z,99924.84
2024-01-14T13:39:05.876Z,99923.56
2024-01-14T13:41:32.907Z,99921.47
2024-01-14T13:44:12.019Z,99931.59
2024-01-14T13:46:44.900Z,99920.66
2024-01-14T13:49:11.640Z,99922.38
2024-01-14T13:51:39.544Z,99924.13
2024-01-14T13:54:12.486Z,99918.06
2024-01-14T13:56:41.958Z,99916.00
2024-01-14T13:59:12.096Z,99916.31
2024-01-14T14:01:39.401Z,99912.63
2024-01-14T14:04:07.009Z,99903.91
2024-01-14T14:06:37.147Z,99902.81
2024-01-14T14:09:04.754Z,99910.06
2024-01-14T14:11:31.250Z,99906.81
2024-01-14T14:13:59.935Z,99891.78
2024-01-14T14:16:35.218Z,99882.72
2024-01-14T14:19:07.412Z,99883.53
2024-01-14T14:21:42.495Z,99880.63
2024-01-14T14:24:20.155Z,99877.63
2024-01-14T14:26:46.866Z,99877.00
2024-01-14T14:29:13.354Z,99857.34
2024-01-14T14:31:48.209Z,99862.94
2024-01-14T14:34:16.845Z,99865.25
2024-01-14T14:36:44.307Z,99863.63
2024-01-14T14:39:11.595Z,99859.00
2024-01-14T14:41:38.230Z,99862.59
2024-01-14T14:44:05.703Z,99857.34
2024-01-14T14:46:32.579Z,99860.84
2024-01-14T14:49:00.232Z,99854.22
2024-01-14T14:51:33.789Z,99859.59
2024-01-14T14:54:10.133Z,99859.94
2024-01-14T14:56:37.265Z,99847.03
2024-01-14T14:59:03.880Z,99840.03
2024-01-14T15:01:37.948Z,99839.69
2024-01-14T15:04:11.564Z,99842.94
2024-01-14T15:06:39.781Z,99841.22
2024-01-14T15:09:08.139Z,99844.00
2024-01-14T15:11:38.358Z,99836.31
2024-01-14T15:14:06.377Z,99834.56
2024-01-14T15:16:32.842Z,99832.84
2024-01-14T15:18:59.618Z,99820.84
2024-01-14T15:21:26.350Z,99809.31
2024-01-14T15:23:52.862Z,99804.31
2024-01-14T15:26:19.292Z,99811.06
2024-01-14T15:28:46.183Z,99802.91
2024-01-14T15:31:13.813Z,99794.41
2024-01-14T15:33:41.698Z,99790.13
2024-01-14T15:36:09.612Z,99785.81
2024-01-14T15:38:36.496Z,99780.56
2024-01-14T15:41:07.056Z,99772.91
2024-01-14T15:43:37.672Z,99770.00
2024-01-14T15:46:04.510Z,99766.38
2024-01-14T15:48:31.946Z,99770.44
2024-01-14T15:51:04.596Z,99761.28
2024-01-14T15:53:35.802Z,99756.03
2024-01-14T15:56:06.271Z,99742.09
2024-01-14T15:58:33.549Z,99737.53
2024-01-14T16:01:08.158Z,99741.13
2024-01-14T16:03:38.503Z,99734.88
2024-01-14T16:06:06.362Z,99727.50
2024-01-14T16:08:32.921Z,99721.38
2024-01-14T16:11:05.091Z,99725.19
2024-01-14T16:13:34.161Z,99723.63
2024-01-14T16:16:01.271Z,99718.03
2024-01-14T16:18:27.851Z,99729.50
2024-01-14T16:21:02.786Z,99716.34
2024-01-14T16:23:33.555Z,99718.91
2024-01-14T16:26:00.451Z,99705.66
2024-01-14T16:28:27.527Z,99699.75
2024-01-14T16:31:05.070Z,99702.19
2024-01-14T16:33:38.534Z,99692.66
2024-01-14T16:36:05.734Z,99696.13
2024-01-14T16:38:32.229Z,99695.44
2024-01-14T16:41:03.705Z,99695.31
2024-01-14T16:43:32.434Z,99694.53
2024-01-14T16:45:58.985Z,99692.97
2024-01-14T16:48:25.524Z,99696.63
2024-01-14T16:51:02.468Z,99689.97
2024-01-14T16:53:35.445Z,99674.50
2024-01-14T16:56:02.921Z,99669.88
2024-01-14T16:58:29.461Z,99669.03
2024-01-14T17:01:07.587Z,99659.31
2024-01-14T17:03:41.572Z,99667.53
2024-01-14T17:06:09.874Z,99657.75
2024-01-14T17:08:38.019Z,99643.91
2024-01-14T17:11:08.906Z,99655.78
2024-01-14T17:13:35.317Z,99632.03
2024-01-14T17:16:10.080Z,99629.13
2024-01-14T17:18:40.345Z,99630.63
2024-01-14T17:21:08.129Z,99616.56
2024-01-14T17:23:35.180Z,99623.75
2024-01-14T17:26:07.539Z,99625.97
2024-01-14T17:28:40.913Z,99630.75
2024-01-14T17:31:18.184Z,99633.97
2024-01-14T17:33:48.091Z,99621.06
2024-01-14T17:36:16.206Z,99622.84
2024-01-14T17:38:44.852Z,99617.03
2024-01-14T17:41:11.897Z,99618.41
2024-01-14T17:43:40.228Z,99625.38
2024-01-14T17:46:09.540Z,99605.53
2024-01-14T17:48:42.933Z,99602.63
2024-01-14T17:51:11.515Z,99590.28
2024-01-14T17:53:38.798Z,99592.72
2024-01-14T17:56:05.761Z,99588.31
2024-01-14T17:58:32.554Z,99581.31
2024-01-14T18:01:03.210Z,99575.25
2024-01-14T18:03:30.323Z,99576.09
2024-01-14T18:05:57.036Z,99572.44
2024-01-14T18:08:23.767Z,99560.13
2024-01-14T18:10:50.481Z,99560.13
2024-01-14T18:13:17.646Z,99564.56
2024-01-14T18:15:45.743Z,99551.50
2024-01-14T18:18:13.855Z,99552.47
2024-01-14T18:20:41.658Z,99559.66
2024-01-14T18:23:12.824Z,99552.56
2024-01-14T18:25:42.619Z,99557.00
2024-01-14T18:28:09.280Z,99552.00
2024-01-14T18:30:36.110Z,99542.91
2024-01-14T18:33:10.214Z,99539.44
2024-01-14T18:35:40.878Z,99538.38
2024-01-14T18:38:08.138Z,99538.47
2024-01-14T18:40:34.820Z,99535.84
2024-01-14T18:43:05.648Z,99550.13
2024-01-14T18:45:38.054Z,99540.81
2024-01-14T18:48:07.420Z,99536.34
2024-01-14T18:50:34.943Z,99536.09
2024-01-14T18:53:02.421Z,99538.66
2024-01-14T18:55:29.056Z,99523.91
2024-01-14T18:57:55.525Z,99533.06
2024-01-14T19:00:21.956Z,99514.69
2024-01-14T19:02:48.749Z,99511.91
2024-01-14T19:05:15.992Z,99503.31
2024-01-14T19:07:42.887Z,99505.84
2024-01-14T19:10:10.192Z,99507.94
2024-01-14T19:12:37.498Z,99512.72
2024-01-14T19:15:05.521Z,99503.41
2024-01-14T19:17:33.112Z,99502.28
2024-01-14T19:20:00.846Z,99495.59
2024-01-14T19:22:27.899Z,99490.63
2024-01-14T19:24:55.321Z,99487.94
2024-01-14T19:27:22.588Z,99493.78
2024-01-14T19:29:49.415Z,99498.28
2024-01-14T19:32:16.039Z,99492.69
2024-01-14T19:34:45.446Z,99492.28
2024-01-14T19:37:12.386Z,99487.97
2024-01-14T19:39:42.904Z,99481.50
2024-01-14T19:42:11.432Z,99483.22
2024-01-14T19:44:37.987Z,99475.28
2024-01-14T19:47:04.692Z,99481.44
2024-01-14T19:49:31.497Z,99464.03
2024-01-14T19:51:58.216Z,99466.84
2024-01-14T19:54:25.989Z,99472.44
2024-01-14T19:56:53.591Z,99466.00
2024-01-14T19:59:21.606Z,99459.06
2024-01-14T20:01:48.625Z,99465.53
2024-01-14T20:04:15.525Z,99467.25
2024-01-14T20:06:43.084Z,99460.97
2024-01-14T20:09:10.551Z,99453.19
2024-01-14T20:11:42.062Z,99449.56
2024-01-14T20:14:08.696Z,99451.44
2024-01-14T20:16:35.097Z,99440.34
2024-01-14T20:19:02.220Z,99421.78
2024-01-14T20:21:28.701Z,99414.56
2024-01-14T20:23:55.196Z,99409.53
2024-01-14T20:26:22.025Z,99407.94
2024-01-14T20:28:49.160Z,99402.56
2024-01-14T20:31:15.898Z,99403.84
2024-01-14T20:33:42.639Z,99395.81
2024-01-14T20:36:09.388Z,99396.16
2024-01-14T20:38:35.940Z,99399.75
2024-01-14T20:41:04.214Z,99393.06
2024-01-14T20:43:31.371Z,99403.13
2024-01-14T20:45:57.770Z,99398.66
2024-01-14T20:48:24.298Z,99382.38
2024-01-14T20:50:51.782Z,99386.59
2024-01-14T20:53:19.534Z,99390.97
2024-01-14T20:55:46.037Z,99382.53
2024-01-14T20:58:14.438Z,99382.94
2024-01-14T21:00:42.002Z,99380.41
2024-01-14T21:03:08.775Z,99370.88
2024-01-14T21:05:35.477Z,99382.78
2024-01-14T21:08:05.260Z,99379.13
2024-01-14T21:10:31.927Z,99365.03
2024-01-14T21:12:58.881Z,99371.28
2024-01-14T21:15:26.563Z,99368.13
2024-01-14T21:17:53.012Z,99354.81
2024-01-14T21:20:19.556Z,99360.81
2024-01-14T21:22:46.002Z,99360.56
2024-01-14T21:25:12.411Z,99350.03
2024-01-14T21:27:38.926Z,99353.66
2024-01-14T21:30:06.022Z,99353.91
2024-01-14T21:32:33.700Z,99335.66
2024-01-14T21:35:00.557Z,99337.63
2024-01-14T21:37:27.289Z,99347.28
2024-01-14T21:39:53.758Z,99336.03
2024-01-14T21:42:21.031Z,99323.03
2024-01-14T21:44:47.550Z,99325.56
2024-01-14T21:47:13.958Z,99320.78
2024-01-14T21:49:40.707Z,99325.31
2024-01-14T21:52:08.239Z,99325.81
2024-01-14T21:54:34.896Z,99323.44
2024-01-14T21:57:01.442Z,99324.16
2024-01-14T21:59:27.857Z,99311.59
2024-01-14T22:01:55.220Z,99313.88
2024-01-14T22:04:21.664Z,99317.28
2024-01-14T22:06:48.211Z,99310.56
2024-01-14T22:09:14.810Z,99308.94
2024-01-14T22:11:41.597Z,99316.47
2024-01-14T22:14:08.073Z,99312.34
2024-01-14T22:16:35.066Z,99309.09
2024-01-14T22:19:02.163Z,99310.88
2024-01-14T22:21:33.313Z,99304.16
2024-01-14T22:24:00.046Z,99302.38
2024-01-14T22:26:26.437Z,99305.03
2024-01-14T22:28:55.977Z,99297.03
2024-01-14T22:31:23.146Z,99296.88
2024-01-14T22:33:49.858Z,99292.97
2024-01-14T22:36:18.021Z,99291.59
2024-01-14T22:38:45.317Z,99289.56
2024-01-14T22:41:13.018Z,99294.50
2024-01-14T22:43:40.764Z,99290.47
2024-01-14T22:46:07.331Z,99284.53
2024-01-14T22:48:34.099Z,99287.69
2024-01-14T22:51:02.878Z,99290.94
2024-01-14T22:53:29.471Z,99295.72
2024-01-14T22:55:55.903Z,99297.91
2024-01-14T22:58:22.451Z,99294.34
2024-01-14T23:00:49.006Z,99286.50
2024-01-14T23:03:16.292Z,99276.13
2024-01-14T23:05:42.980Z,99273.78
2024-01-14T23:08:09.582Z,99282.13
2024-01-14T23:10:36.158Z,99281.56
2024-01-14T23:13:02.995Z,99279.44
2024-01-14T23:15:29.487Z,99273.63
2024-01-14T23:17:56.084Z,99275.31
2024-01-14T23:20:22.547Z,99267.78
2024-01-14T23:22:48.973Z,99271.56
2024-01-14T23:25:15.412Z,99271.56
2024-01-14T23:27:45.309Z,99268.25
2024-01-14T23:30:13.332Z,99264.88
2024-01-14T23:32:40.309Z,99266.16
2024-01-14T23:35:07.601Z,99256.84
2024-01-14T23:37:34.244Z,99264.47
2024-01-14T23:40:01.025Z,99264.31
2024-01-14T23:42:28.405Z,99254.72
2024-01-14T23:44:54.854Z,99256.44
2024-01-14T23:47:21.679Z,99267.13
2024-01-14T23:49:48.288Z,99267.44
2024-01-14T23:52:15.029Z,99261.31
2024-01-14T23:54:41.817Z,99261.38
2024-01-14T23:57:08.337Z,99248.63
2024-01-14T23:59:34.763Z,99251.06
